Anchorage/Lake Hood Seaplane Base, Alaska
Current Conditions -  °F | °C
As of 8:53 AM on Thursday 30 Oct 2014 (Local Time) from PALH Reporting Station
Overcast Overcast  
Wind Chill: 26°   Ceiling: 5500
Heat Index: 26°   Visibility: 10mi
Dew Point: 18°   Wind: 0mph
Humidity: 71%   Direction: NA
Pressure: 29.6"   Gusts: NA
Location:  61.18°N, 149.97°W
Report Text: PALH 301653Z 00000KT 10SM OVC055 M03/M08 A2960 RMK AO2 SLP023 T10331078
Loading
Personal Weather Stations






























Interactive Weather Map
Tropical Storm Tracking
New forecast layout! Learn more

10-Day Weather Forecast

Advertisements
Track Severe Weather on mobile